createdAt,value
2018-08-17T00:01:05.888Z,1015.26
2018-08-17T00:02:15.189Z,1015.25
2018-08-17T00:03:24.764Z,1015.26
2018-08-17T00:04:34.605Z,1015.25
2018-08-17T00:05:44.185Z,1015.25
2018-08-17T00:06:54.307Z,1015.24
2018-08-17T00:08:04.420Z,1015.25
2018-08-17T00:09:13.994Z,1015.26
2018-08-17T00:10:23.838Z,1015.26
2018-08-17T00:11:33.140Z,1015.31
2018-08-17T00:12:42.985Z,1015.27
2018-08-17T00:13:53.103Z,1015.27
2018-08-17T00:15:02.408Z,1015.3
2018-08-17T00:16:12.300Z,1015.31
2018-08-17T00:17:22.410Z,1015.28
2018-08-17T00:18:31.983Z,1015.28
2018-08-17T00:19:41.293Z,1015.31
2018-08-17T00:20:50.867Z,1015.27
2018-08-17T00:22:00.776Z,1015.26
2018-08-17T00:23:10.085Z,1015.29
2018-08-17T00:24:19.933Z,1015.25
2018-08-17T00:25:29.777Z,1015.24
2018-08-17T00:26:39.883Z,1015.23
2018-08-17T00:27:49.459Z,1015.23
2018-08-17T00:28:59.580Z,1015.27
2018-08-17T00:30:08.886Z,1015.25
2018-08-17T00:31:18.465Z,1015.27
2018-08-17T00:32:28.038Z,1015.26
2018-08-17T00:33:37.931Z,1015.26
2018-08-17T00:34:47.505Z,1015.24
2018-08-17T00:35:56.812Z,1015.24
2018-08-17T00:37:06.657Z,1015.25
2018-08-17T00:38:16.501Z,1015.25
2018-08-17T00:39:25.801Z,1015.31
2018-08-17T00:40:35.647Z,1015.28
2018-08-17T00:41:44.947Z,1015.31
2018-08-17T00:42:54.520Z,1015.37
2018-08-17T00:44:04.357Z,1015.4
2018-08-17T00:45:13.942Z,1015.4
2018-08-17T00:46:23.790Z,1015.37
2018-08-17T00:47:33.896Z,1015.34
2018-08-17T00:48:43.198Z,1015.36
2018-08-17T00:49:53.313Z,1015.38
2018-08-17T00:51:03.223Z,1015.42
2018-08-17T00:52:12.808Z,1015.37
2018-08-17T00:53:22.385Z,1015.42
2018-08-17T00:54:32.222Z,1015.38
2018-08-17T00:55:41.523Z,1015.41
2018-08-17T00:56:51.094Z,1015.44
2018-08-17T00:58:00.676Z,1015.42
2018-08-17T00:59:10.254Z,1015.42
2018-08-17T01:00:19.556Z,1015.45
2018-08-17T01:01:29.138Z,1015.51
2018-08-17T01:02:38.989Z,1015.54
2018-08-17T01:03:48.567Z,1015.54
2018-08-17T01:04:58.143Z,1015.57
2018-08-17T01:06:07.718Z,1015.6
2018-08-17T01:07:17.294Z,1015.59
2018-08-17T01:08:27.406Z,1015.59
2018-08-17T01:09:37.528Z,1015.57
2018-08-17T01:10:47.410Z,1015.58
2018-08-17T01:11:57.252Z,1015.56
2018-08-17T01:13:07.366Z,1015.55
2018-08-17T01:14:16.949Z,1015.5
2018-08-17T01:15:27.077Z,1015.53
2018-08-17T01:16:36.646Z,1015.55
2018-08-17T01:17:46.222Z,1015.52
2018-08-17T01:18:55.798Z,1015.46
2018-08-17T01:20:05.917Z,1015.48
2018-08-17T01:21:16.041Z,1015.52
2018-08-17T01:22:25.354Z,1015.52
2018-08-17T01:23:34.650Z,1015.51
2018-08-17T01:24:44.226Z,1015.54
2018-08-17T01:25:53.800Z,1015.51
2018-08-17T01:27:03.651Z,1015.49
2018-08-17T01:28:13.224Z,1015.5
2018-08-17T01:29:22.795Z,1015.49
2018-08-17T01:30:32.917Z,1015.49
2018-08-17T01:31:42.766Z,1015.52
2018-08-17T01:32:52.607Z,1015.53
2018-08-17T01:34:02.451Z,1015.52
2018-08-17T01:35:11.751Z,1015.51
2018-08-17T01:36:21.329Z,1015.52
2018-08-17T01:37:31.181Z,1015.53
2018-08-17T01:38:40.214Z,1015.47
2018-08-17T01:39:49.798Z,1015.46
2018-08-17T01:40:59.907Z,1015.47
2018-08-17T01:42:10.019Z,1015.48
2018-08-17T01:43:19.320Z,1015.48
2018-08-17T01:44:29.162Z,1015.48
2018-08-17T01:45:38.196Z,1015.44
2018-08-17T01:46:47.502Z,1015.47
2018-08-17T01:47:57.354Z,1015.45
2018-08-17T01:49:06.919Z,1015.46
2018-08-17T01:50:16.499Z,1015.43
2018-08-17T01:51:25.801Z,1015.45
2018-08-17T01:52:35.369Z,1015.45
2018-08-17T01:53:44.940Z,1015.5
2018-08-17T01:54:54.518Z,1015.5
2018-08-17T01:56:04.103Z,1015.51
2018-08-17T01:57:13.948Z,1015.56
2018-08-17T01:58:23.522Z,1015.56
2018-08-17T01:59:33.373Z,1015.58
2018-08-17T02:00:42.675Z,1015.59
2018-08-17T02:01:52.840Z,1015.59
2018-08-17T02:03:02.679Z,1015.61
2018-08-17T02:04:11.984Z,1015.58
2018-08-17T02:05:22.095Z,1015.59
2018-08-17T02:06:31.932Z,1015.58
2018-08-17T02:07:41.509Z,1015.61
2018-08-17T02:08:51.350Z,1015.6
2018-08-17T02:10:01.468Z,1015.6
2018-08-17T02:11:11.591Z,1015.58
2018-08-17T02:12:21.159Z,1015.59
2018-08-17T02:13:31.266Z,1015.57
2018-08-17T02:14:40.905Z,1015.53
2018-08-17T02:15:51.699Z,1015.53
2018-08-17T02:17:01.864Z,1015.56
2018-08-17T02:18:11.710Z,1015.49
2018-08-17T02:19:21.012Z,1015.52
2018-08-17T02:20:30.595Z,1015.46
2018-08-17T02:21:40.177Z,1015.52
2018-08-17T02:22:50.341Z,1015.49
2018-08-17T02:24:00.456Z,1015.48
2018-08-17T02:25:10.300Z,1015.51
2018-08-17T02:26:20.155Z,1015.54
2018-08-17T02:27:30.273Z,1015.57
2018-08-17T02:28:40.449Z,1015.54
2018-08-17T02:29:50.611Z,1015.53
2018-08-17T02:31:00.229Z,1015.54
2018-08-17T02:32:09.805Z,1015.54
2018-08-17T02:33:19.378Z,1015.55
2018-08-17T02:34:29.508Z,1015.55
2018-08-17T02:35:38.814Z,1015.59
2018-08-17T02:36:48.723Z,1015.56
2018-08-17T02:37:58.861Z,1015.57
2018-08-17T02:39:08.444Z,1015.57
2018-08-17T02:40:18.296Z,1015.57
2018-08-17T02:41:28.143Z,1015.54
2018-08-17T02:42:37.452Z,1015.58
2018-08-17T02:43:47.305Z,1015.59
2018-08-17T02:44:57.172Z,1015.6
2018-08-17T02:46:07.039Z,1015.61
2018-08-17T02:47:16.618Z,1015.55
2018-08-17T02:48:26.763Z,1015.6
2018-08-17T02:49:36.345Z,1015.6
2018-08-17T02:50:46.200Z,1015.65
2018-08-17T02:51:56.060Z,1015.67
2018-08-17T02:53:05.904Z,1015.66
2018-08-17T02:54:15.745Z,1015.63
2018-08-17T02:55:25.867Z,1015.69
2018-08-17T02:56:35.722Z,1015.69
2018-08-17T02:57:45.861Z,1015.66
2018-08-17T02:58:55.444Z,1015.64
2018-08-17T03:00:04.760Z,1015.64
2018-08-17T03:01:14.631Z,1015.66
2018-08-17T03:02:24.484Z,1015.64
2018-08-17T03:03:34.327Z,1015.63
2018-08-17T03:04:44.181Z,1015.66
2018-08-17T03:05:53.757Z,1015.7
2018-08-17T03:07:03.898Z,1015.74
2018-08-17T03:08:13.207Z,1015.73
2018-08-17T03:09:23.058Z,1015.74
2018-08-17T03:10:32.921Z,1015.77
2018-08-17T03:11:43.033Z,1015.71
2018-08-17T03:12:52.075Z,1015.75
2018-08-17T03:14:01.653Z,1015.76
2018-08-17T03:15:11.025Z,1015.72
2018-08-17T03:16:20.877Z,1015.76
2018-08-17T03:17:30.454Z,1015.77
2018-08-17T03:18:40.581Z,1015.75
2018-08-17T03:19:50.706Z,1015.77
2018-08-17T03:21:00.826Z,1015.79
2018-08-17T03:22:10.407Z,1015.74
2018-08-17T03:23:19.715Z,1015.76
2018-08-17T03:24:28.749Z,1015.77
2018-08-17T03:25:38.332Z,1015.79
2018-08-17T03:26:48.172Z,1015.81
2018-08-17T03:27:58.022Z,1015.82
2018-08-17T03:29:07.860Z,1015.86
2018-08-17T03:30:17.434Z,1015.84
2018-08-17T03:31:27.564Z,1015.9
2018-08-17T03:32:37.140Z,1015.9
2018-08-17T03:33:46.450Z,1015.94
2018-08-17T03:34:56.024Z,1015.99
2018-08-17T03:36:05.597Z,1016
2018-08-17T03:37:15.822Z,1016.04
2018-08-17T03:38:26.051Z,1016.05
2018-08-17T03:39:36.167Z,1016.08
2018-08-17T03:40:45.475Z,1016.14
2018-08-17T03:41:55.592Z,1016.12
2018-08-17T03:43:04.898Z,1016.12
2018-08-17T03:44:14.483Z,1016.11
2018-08-17T03:45:24.336Z,1016.13
2018-08-17T03:46:33.911Z,1016.12
2018-08-17T03:47:43.213Z,1016.14
2018-08-17T03:48:52.515Z,1016.14
2018-08-17T03:50:01.922Z,1016.22
2018-08-17T03:51:11.503Z,1016.22
2018-08-17T03:52:21.348Z,1016.22
2018-08-17T03:53:30.929Z,1016.21
2018-08-17T03:54:40.778Z,1016.2
2018-08-17T03:55:50.632Z,1016.23
2018-08-17T03:57:00.740Z,1016.2
2018-08-17T03:58:10.587Z,1016.23
2018-08-17T03:59:19.888Z,1016.23
2018-08-17T04:00:29.195Z,1016.31
2018-08-17T04:01:38.768Z,1016.35
2018-08-17T04:02:48.349Z,1016.36
2018-08-17T04:03:57.931Z,1016.41
2018-08-17T04:05:07.239Z,1016.44
2018-08-17T04:06:16.812Z,1016.48
2018-08-17T04:07:26.659Z,1016.5
2018-08-17T04:08:36.515Z,1016.52
2018-08-17T04:09:46.359Z,1016.54
2018-08-17T04:10:55.934Z,1016.54
2018-08-17T04:12:05.244Z,1016.55
2018-08-17T04:13:14.545Z,1016.55
2018-08-17T04:14:24.663Z,1016.56
2018-08-17T04:15:34.365Z,1016.59
2018-08-17T04:16:44.910Z,1016.6
2018-08-17T04:17:54.477Z,1016.65
2018-08-17T04:19:04.106Z,1016.64
2018-08-17T04:20:13.680Z,1016.65
2018-08-17T04:21:23.786Z,1016.65
2018-08-17T04:22:33.093Z,1016.63
2018-08-17T04:23:42.965Z,1016.65
2018-08-17T04:24:53.028Z,1016.69
2018-08-17T04:26:02.867Z,1016.71
2018-08-17T04:27:12.447Z,1016.69
2018-08-17T04:28:22.296Z,1016.7
2018-08-17T04:29:31.868Z,1016.72
2018-08-17T04:30:41.448Z,1016.69
2018-08-17T04:31:50.748Z,1016.72
2018-08-17T04:33:00.325Z,1016.68
2018-08-17T04:34:10.178Z,1016.65
2018-08-17T04:35:20.065Z,1016.62
2018-08-17T04:36:30.203Z,1016.64
2018-08-17T04:37:39.234Z,1016.63
2018-08-17T04:38:49.080Z,1016.63
2018-08-17T04:39:58.925Z,1016.62
2018-08-17T04:41:09.041Z,1016.61
2018-08-17T04:42:18.880Z,1016.61
2018-08-17T04:43:28.719Z,1016.6
2018-08-17T04:44:38.407Z,1016.58
2018-08-17T04:45:47.758Z,1016.62
2018-08-17T04:46:56.793Z,1016.65
2018-08-17T04:48:06.641Z,1016.64
2018-08-17T04:49:16.803Z,1016.66
2018-08-17T04:50:27.146Z,1016.64
2018-08-17T04:51:37.032Z,1016.65
2018-08-17T04:52:47.148Z,1016.63
2018-08-17T04:53:56.989Z,1016.57
2018-08-17T04:55:06.297Z,1016.62
2018-08-17T04:56:16.147Z,1016.63
2018-08-17T04:57:25.804Z,1016.62
2018-08-17T04:58:35.431Z,1016.62
2018-08-17T04:59:44.742Z,1016.63
2018-08-17T05:00:54.044Z,1016.62
2018-08-17T05:02:03.619Z,1016.61
2018-08-17T05:03:13.494Z,1016.67
2018-08-17T05:04:23.154Z,1016.66
2018-08-17T05:05:33.003Z,1016.7
2018-08-17T05:06:42.034Z,1016.67
2018-08-17T05:07:51.872Z,1016.69
2018-08-17T05:09:01.593Z,1016.65
2018-08-17T05:10:11.464Z,1016.63
2018-08-17T05:11:21.093Z,1016.62
2018-08-17T05:12:30.942Z,1016.6
2018-08-17T05:13:41.054Z,1016.6
2018-08-17T05:14:51.173Z,1016.62
2018-08-17T05:16:00.746Z,1016.63
2018-08-17T05:17:10.867Z,1016.66
2018-08-17T05:18:20.705Z,1016.67
2018-08-17T05:19:30.278Z,1016.68
2018-08-17T05:20:40.402Z,1016.7
2018-08-17T05:21:49.751Z,1016.66
2018-08-17T05:22:59.063Z,1016.6
2018-08-17T05:24:08.648Z,1016.55
2018-08-17T05:25:18.494Z,1016.52
2018-08-17T05:26:28.336Z,1016.54
2018-08-17T05:27:37.373Z,1016.54
2018-08-17T05:28:46.949Z,1016.55
2018-08-17T05:29:56.798Z,1016.59
2018-08-17T05:31:06.651Z,1016.61
2018-08-17T05:32:16.759Z,1016.61
2018-08-17T05:33:26.333Z,1016.64
2018-08-17T05:34:35.905Z,1016.65
2018-08-17T05:35:45.751Z,1016.68
2018-08-17T05:36:56.103Z,1016.67
2018-08-17T05:38:05.953Z,1016.72
2018-08-17T05:39:15.800Z,1016.73
2018-08-17T05:40:25.960Z,1016.71
2018-08-17T05:41:35.262Z,1016.68
2018-08-17T05:42:45.163Z,1016.63
2018-08-17T05:43:54.472Z,1016.6
2018-08-17T05:45:04.123Z,1016.63
2018-08-17T05:46:14.818Z,1016.66
2018-08-17T05:47:24.394Z,1016.66
2018-08-17T05:48:34.255Z,1016.75
2018-08-17T05:49:44.095Z,1016.77
2018-08-17T05:50:53.673Z,1016.82
2018-08-17T05:52:03.517Z,1016.81
2018-08-17T05:53:12.819Z,1016.82
2018-08-17T05:54:22.396Z,1016.83
2018-08-17T05:55:31.969Z,1016.85
2018-08-17T05:56:41.847Z,1016.83
2018-08-17T05:57:51.617Z,1016.89
2018-08-17T05:59:01.729Z,1016.84
2018-08-17T06:00:11.626Z,1016.87
2018-08-17T06:01:21.467Z,1016.82
2018-08-17T06:02:31.056Z,1016.86
2018-08-17T06:03:41.192Z,1016.89
2018-08-17T06:04:51.322Z,1016.91
2018-08-17T06:06:01.175Z,1016.91
2018-08-17T06:07:10.213Z,1016.87
2018-08-17T06:08:20.328Z,1016.86
2018-08-17T06:09:29.901Z,1016.86
2018-08-17T06:10:39.830Z,1016.87
2018-08-17T06:11:49.865Z,1016.86
2018-08-17T06:12:59.241Z,1016.87
2018-08-17T06:14:09.366Z,1016.82
2018-08-17T06:15:19.209Z,1016.81
2018-08-17T06:16:28.535Z,1016.83
2018-08-17T06:17:37.896Z,1016.81
2018-08-17T06:18:47.742Z,1016.88
2018-08-17T06:19:57.316Z,1016.86
2018-08-17T06:21:07.161Z,1016.91
2018-08-17T06:22:17.023Z,1016.9
2018-08-17T06:23:26.380Z,1016.94
2018-08-17T06:24:35.692Z,1016.95
2018-08-17T06:25:45.809Z,1016.94
2018-08-17T06:26:55.117Z,1016.99
2018-08-17T06:28:05.256Z,1016.95
2018-08-17T06:29:15.103Z,1016.92
2018-08-17T06:30:24.951Z,1016.93
2018-08-17T06:31:34.551Z,1016.96
2018-08-17T06:32:44.295Z,1016.98
2018-08-17T06:33:53.874Z,1017.02
2018-08-17T06:35:03.774Z,1017.04
2018-08-17T06:36:13.693Z,1017
2018-08-17T06:37:24.017Z,1016.98
2018-08-17T06:38:34.107Z,1016.99
2018-08-17T06:39:43.698Z,1017.03
2018-08-17T06:40:53.550Z,1016.98
2018-08-17T06:42:03.401Z,1017
2018-08-17T06:43:13.527Z,1017.02
2018-08-17T06:44:23.104Z,1017.05
2018-08-17T06:45:32.680Z,1017.07
2018-08-17T06:46:42.841Z,1017.12
2018-08-17T06:47:52.413Z,1017.13
2018-08-17T06:49:02.537Z,1017.09
2018-08-17T06:50:11.842Z,1017.14
2018-08-17T06:51:21.413Z,1017.11
2018-08-17T06:52:30.994Z,1017.13
2018-08-17T06:53:41.106Z,1017.08
2018-08-17T06:54:50.952Z,1017.06
2018-08-17T06:56:00.804Z,1017.05
2018-08-17T06:57:10.656Z,1017.04
2018-08-17T06:58:21.472Z,1017.04
2018-08-17T06:59:31.048Z,1017.02
2018-08-17T07:00:40.092Z,1017.04
2018-08-17T07:01:49.389Z,1017.1
2018-08-17T07:02:59.228Z,1017.2
2018-08-17T07:04:08.806Z,1017.2
2018-08-17T07:05:18.954Z,1017.22
2018-08-17T07:06:28.528Z,1017.23
2018-08-17T07:07:38.108Z,1017.21
2018-08-17T07:08:48.062Z,1017.24
2018-08-17T07:09:57.536Z,1017.18
2018-08-17T07:11:07.114Z,1017.21
2018-08-17T07:12:17.237Z,1017.23
2018-08-17T07:13:27.353Z,1017.24
2018-08-17T07:14:36.659Z,1017.21
2018-08-17T07:15:46.504Z,1017.17
2018-08-17T07:16:56.151Z,1017.16
2018-08-17T07:18:06.058Z,1017.1
2018-08-17T07:19:15.378Z,1017.1
2018-08-17T07:20:25.230Z,1017.09
2018-08-17T07:21:34.823Z,1017.1
2018-08-17T07:22:44.774Z,1017.11
2018-08-17T07:23:54.617Z,1017.12
2018-08-17T07:25:04.474Z,1017.11
2018-08-17T07:26:14.605Z,1017.18
2018-08-17T07:27:24.721Z,1017.22
2018-08-17T07:28:34.297Z,1017.22
2018-08-17T07:29:43.607Z,1017.21
2018-08-17T07:30:53.452Z,1017.27
2018-08-17T07:32:03.033Z,1017.32
2018-08-17T07:33:12.880Z,1017.31
2018-08-17T07:34:21.914Z,1017.42
2018-08-17T07:35:30.952Z,1017.42
2018-08-17T07:36:41.239Z,1017.43
2018-08-17T07:37:50.829Z,1017.44
2018-08-17T07:39:00.995Z,1017.44
2018-08-17T07:40:10.315Z,1017.39
2018-08-17T07:41:20.162Z,1017.43
2018-08-17T07:42:30.056Z,1017.39
2018-08-17T07:43:39.363Z,1017.36
2018-08-17T07:44:49.474Z,1017.35
2018-08-17T07:45:59.046Z,1017.33
2018-08-17T07:47:08.656Z,1017.3
2018-08-17T07:48:18.305Z,1017.37
2018-08-17T07:49:28.572Z,1017.39
2018-08-17T07:50:38.693Z,1017.47
2018-08-17T07:51:48.541Z,1017.46
2018-08-17T07:52:58.662Z,1017.48
2018-08-17T07:54:08.517Z,1017.48
2018-08-17T07:55:18.413Z,1017.47
2018-08-17T07:56:28.034Z,1017.48
2018-08-17T07:57:37.882Z,1017.47
2018-08-17T07:58:47.994Z,1017.44
2018-08-17T07:59:58.210Z,1017.43
2018-08-17T08:01:08.061Z,1017.44
2018-08-17T08:02:17.693Z,1017.47
2018-08-17T08:03:27.006Z,1017.49
2018-08-17T08:04:36.848Z,1017.53
2018-08-17T08:05:46.423Z,1017.55
2018-08-17T08:06:55.995Z,1017.54
2018-08-17T08:08:05.848Z,1017.65
2018-08-17T08:09:15.424Z,1017.75
2018-08-17T08:10:25.544Z,1017.8
2018-08-17T08:11:35.738Z,1017.79
2018-08-17T08:12:44.783Z,1017.81
2018-08-17T08:13:54.639Z,1017.77
2018-08-17T08:15:03.948Z,1017.84
2018-08-17T08:16:13.800Z,1017.86
2018-08-17T08:17:23.109Z,1017.89
2018-08-17T08:18:32.690Z,1017.92
2018-08-17T08:19:42.320Z,1017.96
2018-08-17T08:20:52.430Z,1017.99
2018-08-17T08:22:02.282Z,1018.04
2018-08-17T08:23:12.136Z,1018.1
2018-08-17T08:24:21.981Z,1018.11
2018-08-17T08:25:31.564Z,1018.1
2018-08-17T08:26:41.140Z,1018.08
2018-08-17T08:27:50.453Z,1018.07
2018-08-17T08:28:59.761Z,1018.13
2018-08-17T08:30:09.341Z,1018.2
2018-08-17T08:31:19.458Z,1018.24
2018-08-17T08:32:29.137Z,1018.22
2018-08-17T08:33:39.578Z,1018.28
2018-08-17T08:34:49.433Z,1018.29
2018-08-17T08:35:59.007Z,1018.31
2018-08-17T08:37:09.123Z,1018.31
2018-08-17T08:38:19.246Z,1018.4
2018-08-17T08:39:29.103Z,1018.46
2018-08-17T08:40:38.676Z,1018.48
2018-08-17T08:41:48.524Z,1018.51
2018-08-17T08:42:58.745Z,1018.46
2018-08-17T08:44:08.325Z,1018.41
2018-08-17T08:45:18.169Z,1018.44
2018-08-17T08:46:27.841Z,1018.48
2018-08-17T08:47:37.426Z,1018.52
2018-08-17T08:48:47.538Z,1018.53
2018-08-17T08:49:57.130Z,1018.59
2018-08-17T08:51:06.979Z,1018.62
2018-08-17T08:52:16.553Z,1018.63
2018-08-17T08:53:26.672Z,1018.69
2018-08-17T08:54:36.569Z,1018.75
2018-08-17T08:55:46.415Z,1018.71
2018-08-17T08:56:55.823Z,1018.77
2018-08-17T08:58:05.131Z,1018.83
2018-08-17T08:59:14.974Z,1018.89
2018-08-17T09:00:24.818Z,1018.91
2018-08-17T09:01:34.976Z,1018.98
2018-08-17T09:02:45.256Z,1019.03
2018-08-17T09:03:55.371Z,1019.01
2018-08-17T09:05:05.230Z,1019.01
2018-08-17T09:06:15.128Z,1019.08
2018-08-17T09:07:24.976Z,1019.08
2018-08-17T09:08:34.866Z,1019
2018-08-17T09:09:44.443Z,1018.96
2018-08-17T09:10:53.759Z,1018.98
2018-08-17T09:12:03.337Z,1019.03
2018-08-17T09:13:12.906Z,1018.98
2018-08-17T09:14:23.024Z,1018.91
2018-08-17T09:15:32.619Z,1018.86
2018-08-17T09:16:42.740Z,1018.87
2018-08-17T09:17:52.585Z,1018.84
2018-08-17T09:19:02.435Z,1018.83
2018-08-17T09:20:12.339Z,1018.87
2018-08-17T09:21:22.853Z,1018.89
2018-08-17T09:22:32.699Z,1018.89
2018-08-17T09:23:42.810Z,1018.93
2018-08-17T09:24:52.921Z,1018.87
2018-08-17T09:26:03.050Z,1018.86
2018-08-17T09:27:12.357Z,1018.89
2018-08-17T09:28:22.468Z,1018.95
2018-08-17T09:29:32.323Z,1018.91
2018-08-17T09:30:42.437Z,1018.9
2018-08-17T09:31:52.010Z,1018.89
2018-08-17T09:33:01.315Z,1018.89
2018-08-17T09:34:11.160Z,1018.82
2018-08-17T09:35:20.736Z,1018.85
2018-08-17T09:36:30.581Z,1018.78
2018-08-17T09:37:40.157Z,1018.79
2018-08-17T09:38:49.462Z,1018.76
2018-08-17T09:39:59.315Z,1018.74
2018-08-17T09:41:08.987Z,1018.72
2018-08-17T09:42:18.836Z,1018.68
2018-08-17T09:43:28.680Z,1018.62
2018-08-17T09:44:38.261Z,1018.59
2018-08-17T09:45:47.572Z,1018.52
2018-08-17T09:46:57.467Z,1018.54
2018-08-17T09:48:07.048Z,1018.56
2018-08-17T09:49:16.899Z,1018.56
2018-08-17T09:50:25.930Z,1018.54
2018-08-17T09:51:35.237Z,1018.52
2018-08-17T09:52:45.130Z,1018.53
2018-08-17T09:53:54.970Z,1018.55
2018-08-17T09:55:05.082Z,1018.54
2018-08-17T09:56:15.233Z,1018.48
2018-08-17T09:57:25.119Z,1018.47
2018-08-17T09:58:35.145Z,1018.44
2018-08-17T09:59:44.985Z,1018.46
2018-08-17T10:00:54.018Z,1018.51
2018-08-17T10:02:03.322Z,1018.49
2018-08-17T10:03:12.629Z,1018.47
2018-08-17T10:04:21.680Z,1018.49
2018-08-17T10:05:31.255Z,1018.49
2018-08-17T10:06:41.106Z,1018.53
2018-08-17T10:07:51.224Z,1018.54
2018-08-17T10:09:01.353Z,1018.51
2018-08-17T10:10:10.967Z,1018.54
2018-08-17T10:11:21.078Z,1018.5
2018-08-17T10:12:30.918Z,1018.53
2018-08-17T10:13:40.771Z,1018.49
2018-08-17T10:14:50.885Z,1018.53
2018-08-17T10:15:59.924Z,1018.51
2018-08-17T10:17:09.775Z,1018.51
2018-08-17T10:18:19.628Z,1018.47
2018-08-17T10:19:29.479Z,1018.46
2018-08-17T10:20:38.795Z,1018.45
2018-08-17T10:21:49.550Z,1018.44
2018-08-17T10:23:01.201Z,1018.42
2018-08-17T10:24:11.054Z,1018.48
2018-08-17T10:25:20.902Z,1018.52
2018-08-17T10:26:30.776Z,1018.57
2018-08-17T10:27:40.889Z,1018.67
2018-08-17T10:28:50.473Z,1018.68
2018-08-17T10:30:00.313Z,1018.71
2018-08-17T10:31:09.885Z,1018.71
2018-08-17T10:32:18.922Z,1018.67
2018-08-17T10:33:28.501Z,1018.66
2018-08-17T10:34:38.092Z,1018.7
2018-08-17T10:35:47.944Z,1018.77
2018-08-17T10:36:57.795Z,1018.74
2018-08-17T10:38:07.374Z,1018.62
2018-08-17T10:39:17.221Z,1018.6
2018-08-17T10:40:27.348Z,1018.59
2018-08-17T10:41:37.518Z,1018.55
2018-08-17T10:42:47.364Z,1018.57
2018-08-17T10:43:56.931Z,1018.57
2018-08-17T10:45:06.521Z,1018.58
2018-08-17T10:46:16.364Z,1018.54
2018-08-17T10:47:26.226Z,1018.48
2018-08-17T10:48:36.128Z,1018.5
2018-08-17T10:49:45.925Z,1018.51
2018-08-17T10:50:55.498Z,1018.54
2018-08-17T10:52:05.360Z,1018.65
2018-08-17T10:53:14.941Z,1018.55
2018-08-17T10:54:24.513Z,1018.53
2018-08-17T10:55:34.448Z,1018.48
2018-08-17T10:56:44.807Z,1018.42
2018-08-17T10:57:54.647Z,1018.45
2018-08-17T10:59:04.813Z,1018.42
2018-08-17T11:00:14.399Z,1018.52
2018-08-17T11:01:24.245Z,1018.47
2018-08-17T11:02:34.088Z,1018.43
2018-08-17T11:03:43.669Z,1018.46
2018-08-17T11:04:53.784Z,1018.51
2018-08-17T11:06:03.437Z,1018.53
2018-08-17T11:07:12.935Z,1018.54
2018-08-17T11:08:21.975Z,1018.55
2018-08-17T11:09:31.551Z,1018.62
2018-08-17T11:10:41.124Z,1018.57
2018-08-17T11:11:50.488Z,1018.58
2018-08-17T11:13:00.610Z,1018.56
2018-08-17T11:14:09.918Z,1018.52
2018-08-17T11:15:19.500Z,1018.52
2018-08-17T11:16:28.806Z,1018.59
2018-08-17T11:17:38.661Z,1018.53
2018-08-17T11:18:48.235Z,1018.58
2018-08-17T11:19:57.818Z,1018.56
2018-08-17T11:21:07.665Z,1018.53
2018-08-17T11:22:17.517Z,1018.54
2018-08-17T11:23:27.633Z,1018.57
2018-08-17T11:24:37.477Z,1018.55
2018-08-17T11:25:47.597Z,1018.53
2018-08-17T11:26:57.172Z,1018.54
2018-08-17T11:28:06.753Z,1018.54
2018-08-17T11:29:16.601Z,1018.53
2018-08-17T11:30:26.456Z,1018.54
2018-08-17T11:31:36.326Z,1018.55
2018-08-17T11:32:46.172Z,1018.48
2018-08-17T11:33:56.014Z,1018.55
2018-08-17T11:35:05.873Z,1018.51
2018-08-17T11:36:15.452Z,1018.54
2018-08-17T11:37:25.567Z,1018.57
2018-08-17T11:38:35.422Z,1018.57
2018-08-17T11:39:45.333Z,1018.63
2018-08-17T11:40:55.187Z,1018.64
2018-08-17T11:42:05.051Z,1018.62
2018-08-17T11:43:14.902Z,1018.61
2018-08-17T11:44:24.477Z,1018.6
2018-08-17T11:45:34.054Z,1018.6
2018-08-17T11:46:44.172Z,1018.62
2018-08-17T11:47:53.754Z,1018.61
2018-08-17T11:49:03.329Z,1018.62
2018-08-17T11:50:12.638Z,1018.61
2018-08-17T11:51:22.551Z,1018.61
2018-08-17T11:52:32.399Z,1018.55
2018-08-17T11:53:42.387Z,1018.57
2018-08-17T11:54:52.579Z,1018.59
2018-08-17T11:56:02.164Z,1018.59
2018-08-17T11:57:11.474Z,1018.65
2018-08-17T11:58:21.053Z,1018.73
2018-08-17T11:59:30.903Z,1018.67
2018-08-17T12:00:41.022Z,1018.7
2018-08-17T12:01:50.918Z,1018.66
2018-08-17T12:03:01.259Z,1018.63
2018-08-17T12:04:11.154Z,1018.63
2018-08-17T12:05:20.741Z,1018.62
2018-08-17T12:06:30.867Z,1018.63
2018-08-17T12:07:40.455Z,1018.67
2018-08-17T12:08:50.301Z,1018.63
2018-08-17T12:09:59.883Z,1018.66
2018-08-17T12:11:09.735Z,1018.67
2018-08-17T12:12:19.584Z,1018.67
2018-08-17T12:13:28.620Z,1018.68
2018-08-17T12:14:37.982Z,1018.71
2018-08-17T12:15:47.834Z,1018.74
2018-08-17T12:16:57.681Z,1018.74
2018-08-17T12:18:07.526Z,1018.77
2018-08-17T12:19:17.098Z,1018.74
2018-08-17T12:20:26.687Z,1018.75
2018-08-17T12:21:36.000Z,1018.78
2018-08-17T12:22:45.588Z,1018.78
2018-08-17T12:23:55.441Z,1018.83
2018-08-17T12:25:05.329Z,1018.82
2018-08-17T12:26:15.201Z,1018.82
2018-08-17T12:27:25.324Z,1018.8
2018-08-17T12:28:35.177Z,1018.73
2018-08-17T12:29:44.757Z,1018.74
2018-08-17T12:30:54.912Z,1018.73
2018-08-17T12:32:05.126Z,1018.78
2018-08-17T12:33:15.058Z,1018.78
2018-08-17T12:34:24.636Z,1018.78
2018-08-17T12:35:34.479Z,1018.76
2018-08-17T12:36:44.056Z,1018.8
2018-08-17T12:37:53.372Z,1018.81
2018-08-17T12:39:02.681Z,1018.8
2018-08-17T12:40:12.623Z,1018.81
2018-08-17T12:41:22.920Z,1018.85
2018-08-17T12:42:32.250Z,1018.88
2018-08-17T12:43:42.162Z,1018.84
2018-08-17T12:44:51.475Z,1018.89
2018-08-17T12:46:01.320Z,1018.92
2018-08-17T12:47:11.469Z,1018.89
2018-08-17T12:48:21.589Z,1018.89
2018-08-17T12:49:31.438Z,1018.95
2018-08-17T12:50:41.619Z,1018.91
2018-08-17T12:51:50.928Z,1018.9
2018-08-17T12:53:00.783Z,1018.93
2018-08-17T12:54:10.894Z,1018.91
2018-08-17T12:55:20.256Z,1018.9
2018-08-17T12:56:30.108Z,1018.9
2018-08-17T12:57:40.225Z,1018.94
2018-08-17T12:58:50.073Z,1018.91
2018-08-17T12:59:59.387Z,1018.92
2018-08-17T13:01:08.693Z,1018.9
2018-08-17T13:02:18.002Z,1018.89
2018-08-17T13:03:27.857Z,1018.88
2018-08-17T13:04:37.439Z,1018.9
2018-08-17T13:05:47.559Z,1018.94
2018-08-17T13:06:57.412Z,1018.93
2018-08-17T13:08:07.269Z,1018.96
2018-08-17T13:09:17.386Z,1018.92
2018-08-17T13:10:27.241Z,1018.91
2018-08-17T13:11:37.086Z,1018.94
2018-08-17T13:12:46.399Z,1018.98
2018-08-17T13:13:55.772Z,1018.99
2018-08-17T13:15:05.413Z,1019.04
2018-08-17T13:16:15.269Z,1018.98
2018-08-17T13:17:24.923Z,1018.99
2018-08-17T13:18:34.873Z,1019
2018-08-17T13:19:44.713Z,1018.97
2018-08-17T13:20:54.835Z,1018.95
2018-08-17T13:22:04.151Z,1018.97
2018-08-17T13:23:13.476Z,1019.01
2018-08-17T13:24:23.323Z,1018.98
2018-08-17T13:25:32.899Z,1018.96
2018-08-17T13:26:43.018Z,1018.97
2018-08-17T13:27:52.590Z,1018.95
2018-08-17T13:29:01.907Z,1018.89
2018-08-17T13:30:12.077Z,1018.91
2018-08-17T13:31:21.662Z,1018.98
2018-08-17T13:32:31.229Z,1018.97
2018-08-17T13:33:40.810Z,1018.93
2018-08-17T13:34:50.388Z,1018.95
2018-08-17T13:36:00.598Z,1019.02
2018-08-17T13:37:10.751Z,1018.97
2018-08-17T13:38:20.596Z,1018.96
2018-08-17T13:39:30.443Z,1018.94
2018-08-17T13:40:40.568Z,1018.92
2018-08-17T13:41:50.191Z,1018.98
2018-08-17T13:42:59.497Z,1018.92
2018-08-17T13:44:09.096Z,1018.94
2018-08-17T13:45:18.945Z,1018.93
2018-08-17T13:46:27.980Z,1018.91
2018-08-17T13:47:37.565Z,1018.87
2018-08-17T13:48:46.878Z,1018.94
2018-08-17T13:49:56.485Z,1018.91
2018-08-17T13:51:05.809Z,1018.91
2018-08-17T13:52:15.391Z,1018.94
2018-08-17T13:53:24.974Z,1018.96
2018-08-17T13:54:34.555Z,1018.96
2018-08-17T13:55:44.129Z,1018.96
2018-08-17T13:56:53.708Z,1018.93
2018-08-17T13:58:03.291Z,1018.93
2018-08-17T13:59:13.136Z,1018.97
2018-08-17T14:00:22.714Z,1019.01
2018-08-17T14:01:32.635Z,1018.99
2018-08-17T14:02:42.484Z,1019.06
2018-08-17T14:03:52.329Z,1019.03
2018-08-17T14:05:01.642Z,1019.05
2018-08-17T14:06:11.491Z,1019.04
2018-08-17T14:07:21.065Z,1019